Map

Track Data

SID SEASON NUMBER BASIN SUBBASIN NAME ISO_TIME NATURE LAT LON WMO_WIND WMO_PRES WMO_AGENCY TRACK_TYPE DIST2LAND LANDFALL IFLAG USA_AGENCY USA_ATCF_ID USA_LAT USA_LON USA_RECORD USA_STATUS USA_WIND USA_PRES USA_SSHS USA_R34_NE USA_R34_SE USA_R34_SW USA_R34_NW USA_R50_NE USA_R50_SE USA_R50_SW USA_R50_NW USA_R64_NE USA_R64_SE USA_R64_SW USA_R64_NW USA_POCI USA_ROCI USA_RMW USA_EYE TOKYO_LAT TOKYO_LON TOKYO_GRADE TOKYO_WIND TOKYO_PRES TOKYO_R50_DIR TOKYO_R50_LONG TOKYO_R50_SHORT TOKYO_R30_DIR TOKYO_R30_LONG TOKYO_R30_SHORT TOKYO_LAND CMA_LAT CMA_LON CMA_CAT CMA_WIND CMA_PRES HKO_LAT HKO_LON HKO_CAT HKO_WIND HKO_PRES NEWDELHI_LAT NEWDELHI_LON NEWDELHI_GRADE NEWDELHI_WIND NEWDELHI_PRES NEWDELHI_CI NEWDELHI_DP NEWDELHI_POCI REUNION_LAT REUNION_LON REUNION_TYPE REUNION_WIND REUNION_PRES REUNION_TNUM REUNION_CI REUNION_RMW REUNION_R34_NE REUNION_R34_SE REUNION_R34_SW REUNION_R34_NW REUNION_R50_NE REUNION_R50_SE REUNION_R50_SW REUNION_R50_NW REUNION_R64_NE REUNION_R64_SE REUNION_R64_SW REUNION_R64_NW BOM_LAT BOM_LON BOM_TYPE BOM_WIND BOM_PRES BOM_TNUM BOM_CI BOM_RMW BOM_R34_NE BOM_R34_SE BOM_R34_SW BOM_R34_NW BOM_R50_NE BOM_R50_SE BOM_R50_SW BOM_R50_NW BOM_R64_NE BOM_R64_SE BOM_R64_SW BOM_R64_NW BOM_ROCI BOM_POCI BOM_EYE BOM_POS_METHOD BOM_PRES_METHOD NADI_LAT NADI_LON NADI_CAT NADI_WIND NADI_PRES WELLINGTON_LAT WELLINGTON_LON WELLINGTON_WIND WELLINGTON_PRES DS824_LAT DS824_LON DS824_STAGE DS824_WIND DS824_PRES TD9636_LAT TD9636_LON TD9636_STAGE TD9636_WIND TD9636_PRES TD9635_LAT TD9635_LON TD9635_WIND TD9635_PRES TD9635_ROCI NEUMANN_LAT NEUMANN_LON NEUMANN_CLASS NEUMANN_WIND NEUMANN_PRES MLC_LAT MLC_LON MLC_CLASS MLC_WIND MLC_PRES USA_GUST BOM_GUST BOM_GUST_PER REUNION_GUST REUNION_GUST_PER USA_SEAHGT USA_SEARAD_NE USA_SEARAD_SE USA_SEARAD_SW USA_SEARAD_NW STORM_SPEED STORM_DIR
1991197N09248 1991 40 EP MM ENRIQUE 1991-07-15 12:00:00 TS 9.40000 248.100 25 1008 hurdat_epa main 1337 1337 O_____________ hurdat_epa EP061991 9.40000 -111.900 TD 25 1008 -1 14 286
1991197N09248 1991 40 EP MM ENRIQUE 1991-07-15 15:00:00 TS 9.59769 247.415 main 1363 1363 P_____________ EP061991 9.59769 -112.585 TD 27 1007 -1 14 286
1991197N09248 1991 40 EP MM ENRIQUE 1991-07-15 18:00:00 TS 9.80000 246.700 30 1007 hurdat_epa main 1393 1393 O_____________ hurdat_epa EP061991 9.80000 -113.300 TD 30 1007 -1 15 286
1991197N09248 1991 40 EP MM ENRIQUE 1991-07-15 21:00:00 TS 10.0075 245.943 main 1435 1434 P_____________ EP061991 10.0075 -114.058 TD 32 1006 -1 15 285
1991197N09248 1991 40 EP MM ENRIQUE 1991-07-16 00:00:00 TS 10.2000 245.200 35 1005 hurdat_epa main 1472 1472 O_____________ hurdat_epa EP061991 10.2000 -114.800 TS 35 1005 0 14 284
1991197N09248 1991 40 EP MM ENRIQUE 1991-07-16 03:00:00 TS 10.3498 244.527 main 1518 1510 P_____________ EP061991 10.3498 -115.473 TS 40 1003 0 13 283
1991197N09248 1991 40 EP MM ENRIQUE 1991-07-16 06:00:00 TS 10.5000 243.900 45 1001 hurdat_epa main 1531 1530 O_____________ hurdat_epa EP061991 10.5000 -116.100 TS 45 1001 0 13 286
1991197N09248 1991 40 EP MM ENRIQUE 1991-07-16 09:00:00 TS 10.6848 243.300 main 1539 1539 P_____________ EP061991 10.6848 -116.700 TS 47 999 0 12 289
1991197N09248 1991 40 EP MM ENRIQUE 1991-07-16 12:00:00 TS 10.9000 242.700 50 998 hurdat_epa main 1550 1550 O_____________ hurdat_epa EP061991 10.9000 -117.300 TS 50 998 0 13 290
1991197N09248 1991 40 EP MM ENRIQUE 1991-07-16 15:00:00 TS 11.1274 242.065 main 1564 1560 P_____________ EP061991 11.1274 -117.935 TS 52 995 0 14 291
1991197N09248 1991 40 EP MM ENRIQUE 1991-07-16 18:00:00 TS 11.4000 241.400 55 993 hurdat_epa main 1577 1574 O_____________ hurdat_epa EP061991 11.4000 -118.600 TS 55 993 0 15 295
1991197N09248 1991 40 EP MM ENRIQUE 1991-07-16 21:00:00 TS 11.7498 240.715 main 1594 1585 P_____________ EP061991 11.7498 -119.285 TS 57 991 0 15 297
1991197N09248 1991 40 EP MM ENRIQUE 1991-07-17 00:00:00 TS 12.1000 240.000 60 990 hurdat_epa main 1606 1604 O_____________ hurdat_epa EP061991 12.1000 -120.000 TS 60 990 0 16 294
1991197N09248 1991 40 EP MM ENRIQUE 1991-07-17 03:00:00 TS 12.3723 239.265 main 1631 1631 P_____________ EP061991 12.3723 -120.735 TS 62 988 0 16 289
1991197N09248 1991 40 EP MM ENRIQUE 1991-07-17 06:00:00 TS 12.6000 238.500 65 987 hurdat_epa main 1675 1675 O_____________ hurdat_epa EP061991 12.6000 -121.500 HU 65 987 1 16 286
1991197N09248 1991 40 EP MM ENRIQUE 1991-07-17 09:00:00 TS 12.8148 237.715 main 1708 1708 P_____________ EP061991 12.8148 -122.285 HU 62 988 0 16 284
1991197N09248 1991 40 EP MM ENRIQUE 1991-07-17 12:00:00 TS 13.0000 236.900 60 990 hurdat_epa main 1745 1745 O_____________ hurdat_epa EP061991 13.0000 -123.100 TS 60 990 0 16 282
1991197N09248 1991 40 EP MM ENRIQUE 1991-07-17 15:00:00 TS 13.1571 236.072 main 1785 1785 P_____________ EP061991 13.1571 -123.928 TS 57 991 0 17 280
1991197N09248 1991 40 EP MM ENRIQUE 1991-07-17 18:00:00 TS 13.3000 235.200 55 993 hurdat_epa main 1843 1843 O_____________ hurdat_epa EP061991 13.3000 -124.800 TS 55 993 0 18 280
1991197N09248 1991 40 EP MM ENRIQUE 1991-07-17 21:00:00 TS 13.4649 234.258 main 1897 1897 P_____________ EP061991 13.4649 -125.742 TS 52 994 0 19 279
1991197N09248 1991 40 EP MM ENRIQUE 1991-07-18 00:00:00 TS 13.6000 233.300 50 996 hurdat_epa main 1968 1968 O_____________ hurdat_epa EP061991 13.6000 -126.700 TS 50 996 0 18 276
1991197N09248 1991 40 EP MM ENRIQUE 1991-07-18 03:00:00 TS 13.6497 232.385 main 2042 2042 P_____________ EP061991 13.6497 -127.615 TS 47 997 0 18 273
1991197N09248 1991 40 EP MM ENRIQUE 1991-07-18 06:00:00 TS 13.7000 231.500 45 999 hurdat_epa main 2099 2099 O_____________ hurdat_epa EP061991 13.7000 -128.500 TS 45 999 0 17 276
1991197N09248 1991 40 EP MM ENRIQUE 1991-07-18 09:00:00 TS 13.8274 230.613 main 2154 2152 P_____________ EP061991 13.8274 -129.387 TS 45 1000 0 17 280
1991197N09248 1991 40 EP MM ENRIQUE 1991-07-18 12:00:00 TS 14.0000 229.800 45 1001 hurdat_epa main 2195 2195 O_____________ hurdat_epa EP061991 14.0000 -130.200 TS 45 1001 0 15 283
1991197N09248 1991 40 EP MM ENRIQUE 1991-07-18 15:00:00 TS 14.1772 229.105 main 2232 2232 P_____________ EP061991 14.1772 -130.895 TS 42 1002 0 13 288
1991197N09248 1991 40 EP MM ENRIQUE 1991-07-18 18:00:00 TS 14.4000 228.500 40 1003 hurdat_epa main 2262 2262 O_____________ hurdat_epa EP061991 14.4000 -131.500 TS 40 1003 0 13 295
1991197N09248 1991 40 EP MM ENRIQUE 1991-07-18 21:00:00 TS 14.7073 227.928 main 2287 2287 P_____________ EP061991 14.7073 -132.072 TS 37 1003 0 12 299
1991197N09248 1991 40 EP MM ENRIQUE 1991-07-19 00:00:00 TS 15.0000 227.400 35 1004 hurdat_epa main 2305 2305 O_____________ hurdat_epa EP061991 15.0000 -132.600 TS 35 1004 0 11 296
1991197N09248 1991 40 EP MM ENRIQUE 1991-07-19 03:00:00 TS 15.1873 226.900 main 2331 2296 P_____________ EP061991 15.1873 -133.100 TS 35 1005 0 10 287
1991197N09248 1991 40 EP MM ENRIQUE 1991-07-19 06:00:00 TS 15.3000 226.400 35 1006 hurdat_epa main 2296 2241 O_____________ hurdat_epa EP061991 15.3000 -133.600 TS 35 1006 0 10 281
1991197N09248 1991 40 EP MM ENRIQUE 1991-07-19 09:00:00 TS 15.3799 225.862 main 2241 2179 P_____________ EP061991 15.3799 -134.135 TS 35 1006 0 11 275
1991197N09248 1991 40 EP MM ENRIQUE 1991-07-19 12:00:00 TS 15.4000 225.300 35 1007 hurdat_epa main 2179 2128 O_____________ hurdat_epa EP061991 15.4000 -134.700 TS 35 1007 0 11 269
1991197N09248 1991 40 EP MM ENRIQUE 1991-07-19 15:00:00 TS 15.3649 224.724 main 2117 2069 P_____________ EP061991 15.3649 -135.293 TS 32 1007 -1 11 265
1991197N09248 1991 40 EP MM ENRIQUE 1991-07-19 18:00:00 TS 15.3000 224.133 30 1008 hurdat_epa main 2058 2010 O_____________ hurdat_epa EP061991 15.3000 -135.900 TD 30 1008 -1 12 264
1991197N09248 1991 40 EP MM ENRIQUE 1991-07-19 21:00:00 TS 15.2400 223.521 main 2000 1948 P_____________ EP061991 15.2425 -136.515 TD 30 1008 -1 12 265
1991197N09248 1991 40 EP MM ENRIQUE 1991-07-20 00:00:00 TS 15.2000 222.933 30 1009 hurdat_epa main 1938 1887 O_____________ hurdat_epa EP061991 15.2000 -137.100 TD 30 1009 -1 11 268
1991197N09248 1991 40 EP MM ENRIQUE 1991-07-20 03:00:00 TS 15.2015 222.408 main 1887 1846 P_____________ EP061991 15.1848 -137.622 TD 30 1009 -1 10 272
1991197N09248 1991 40 EP MM ENRIQUE 1991-07-20 06:00:00 TS 15.2333 221.933 30 1010 hurdat_epa main 1835 1791 O_____________ hurdat_epa EP061991 15.2000 -138.100 TD 30 1010 -1 9 274
1991197N09248 1991 40 EP MM ENRIQUE 1991-07-20 09:00:00 TS 15.2658 221.465 main 1791 1750 P_____________ EP061991 15.2275 -138.588 TD 30 1011 -1 8 277
1991197N09248 1991 40 EP MM ENRIQUE 1991-07-20 12:00:00 TS 15.3333 221.067 30 1012 hurdat_epa main 1750 1713 O_____________ hurdat_epa EP061991 15.3000 -139.000 TD 30 1012 -1 7 286
1991197N09248 1991 40 EP MM ENRIQUE 1991-07-20 15:00:00 TS 15.4666 220.758 main 1713 1679 P_____________ EP061991 15.4499 -139.302 TD 27 1013 -1 6 297
1991197N09248 1991 40 EP MM ENRIQUE 1991-07-20 18:00:00 TS 15.6000 220.533 25 1014 hurdat_epa main 1679 1665 O_____________ hurdat_epa EP061991 15.6000 -139.500 TD 25 1014 -1 4 297
1991197N09248 1991 40 EP MM ENRIQUE 1991-07-20 21:00:00 TS 15.6650 220.353 main 1665 1645 P_____________ EP061991 15.6725 -139.638 TD 25 1014 -1 3 289
1991197N09248 1991 40 EP MM ENRIQUE 1991-07-21 00:00:00 TS 15.7000 220.233 25 1014 hurdat_epa main 1645 1645 O_____________ hurdat_epa EP061991 15.7000 -139.700 TD 25 1014 -1 2 284
1991197N09248 1991 40 EP MM ENRIQUE 1991-07-21 03:00:00 TS 15.7083 220.172 main 1645 1631 P_____________ EP061991 15.6775 -139.685 TD 25 1014 -1 1 297
1991197N09248 1991 40 EP MM ENRIQUE 1991-07-21 06:00:00 TS 15.7667 220.100 25 1014 hurdat_epa main 1631 1618 O_____________ hurdat_epa EP061991 15.7000 -139.700 TD 25 1014 -1 3 318
1991197N09248 1991 40 EP CP ENRIQUE 1991-07-21 09:00:00 TS 15.9408 219.959 main 1618 1578 P_____________ EP061991 15.8549 -139.840 TD 25 1014 -1 6 320
1991197N09248 1991 40 EP CP ENRIQUE 1991-07-21 12:00:00 TS 16.2000 219.727 25 1014 hurdat_epa main 1578 1548 O_____________ hurdat_epa EP061991 16.1000 -140.100 TD 25 1014 -1 7 318
1991197N09248 1991 40 EP CP ENRIQUE 1991-07-21 15:00:00 TS 16.4851 219.453 main 1548 1509 P_____________ EP061991 16.3401 -140.470 TD 25 1014 -1 8 318
1991197N09248 1991 40 EP CP ENRIQUE 1991-07-21 18:00:00 TS 16.7778 219.178 25 1014 hurdat_epa main 1509 1470 O_____________ hurdat_epa EP061991 16.7000 -140.900 TD 25 1014 -1 8 316
1991197N09248 1991 40 EP CP ENRIQUE 1991-07-21 21:00:00 NR 17.0700 218.870 main 1470 1411 P_____________ EP061991 17.2775 -141.315 TD 25 -1 10 312
1991197N09248 1991 40 EP CP ENRIQUE 1991-07-22 00:00:00 NR 17.4500 218.400 25 1014 cphc main 1409 1349 O_____________ jtwc_ep EP061991 17.9000 -141.700 25 13 311
1991197N09248 1991 40 EP CP ENRIQUE 1991-07-22 03:00:00 NR 17.8876 217.879 main 1349 1288 P_____________ EP061991 18.3573 -142.001 25 14 314
1991197N09248 1991 40 EP CP ENRIQUE 1991-07-22 06:00:00 NR 18.4000 217.350 25 1014 cphc main 1288 1230 O_____________ jtwc_ep EP061991 18.8000 -142.300 25 15 319
1991197N09248 1991 40 EP CP ENRIQUE 1991-07-22 09:00:00 NR 18.9811 216.881 main 1229 1183 P_____________ EP061991 19.3426 -142.692 25 15 325
1991197N09248 1991 40 EP CP ENRIQUE 1991-07-22 12:00:00 NR 19.6000 216.450 25 1014 cphc main 1173 1132 O_____________ jtwc_ep EP061991 19.9000 -143.100 25 15 326
1991197N09248 1991 40 EP CP ENRIQUE 1991-07-22 15:00:00 NR 20.2000 216.013 main 1132 1103 P_____________ EP061991 20.4149 -143.465 25 14 328
1991197N09248 1991 40 EP CP ENRIQUE 1991-07-22 18:00:00 NR 20.8000 215.650 25 1014 cphc main 1095 1083 O_____________ jtwc_ep EP061991 20.9000 -143.800 25 13 336
1991197N09248 1991 40 EP CP ENRIQUE 1991-07-22 21:00:00 NR 21.4186 215.427 main 1083 1079 P_____________ EP061991 21.3574 -144.100 25 13 343
1991197N09248 1991 40 EP CP ENRIQUE 1991-07-23 00:00:00 NR 22.0000 215.250 25 1014 cphc main 1086 1070 O_____________ jtwc_ep EP061991 21.8000 -144.400 25 12 340
1991197N09248 1991 40 EP CP ENRIQUE 1991-07-23 03:00:00 NR 22.5049 215.011 main 1070 1061 P_____________ EP061991 22.2574 -144.735 25 11 334
1991197N09248 1991 40 EP CP ENRIQUE 1991-07-23 06:00:00 NR 22.9500 214.750 25 1014 cphc main 1068 1051 O_____________ jtwc_ep EP061991 22.7000 -145.100 25 10 332
1991197N09248 1991 40 EP CP ENRIQUE 1991-07-23 09:00:00 NR 23.3760 214.512 main 1056 1041 P_____________ EP061991 23.1148 -145.470 25 10 328
1991197N09248 1991 40 EP CP ENRIQUE 1991-07-23 12:00:00 NR 23.7500 214.200 25 1014 cphc main 1046 1020 O_____________ jtwc_ep EP061991 23.5000 -145.900 25 10 315
1991197N09248 1991 40 EP CP ENRIQUE 1991-07-23 15:00:00 NR 24.0724 213.752 main 1025 983 P_____________ EP061991 23.8649 -146.413 25 11 303
1991197N09248 1991 40 EP CP ENRIQUE 1991-07-23 18:00:00 NR 24.3500 213.200 20 1014 cphc main 989 950 O_____________ jtwc_ep EP061991 24.2000 -147.000 25 12 298
1991197N09248 1991 40 EP CP ENRIQUE 1991-07-23 21:00:00 NR 24.6185 212.612 main 950 912 P_____________ EP061991 24.5148 -147.628 25 12 294
1991197N09248 1991 40 EP CP ENRIQUE 1991-07-24 00:00:00 NR 24.8500 211.950 20 1014 cphc main 910 869 O_____________ jtwc_ep EP061991 24.8000 -148.300 25 13 289
1991197N09248 1991 40 EP CP ENRIQUE 1991-07-24 03:00:00 NR 25.0435 211.226 main 862 824 P_____________ EP061991 25.0721 -148.978 25 14 284
1991197N09248 1991 40 EP CP ENRIQUE 1991-07-24 06:00:00 NR 25.2000 210.450 20 1014 cphc main 824 769 O_____________ jtwc_ep EP061991 25.3000 -149.700 25 14 281
1991197N09248 1991 40 EP CP ENRIQUE 1991-07-24 09:00:00 NR 25.3245 209.668 main 769 717 P_____________ EP061991 25.4647 -150.478 25 15 280
1991197N09248 1991 40 EP CP ENRIQUE 1991-07-24 12:00:00 NR 25.4500 208.850 20 1014 cphc main 725 674 O_____________ jtwc_ep EP061991 25.6000 -151.300 25 15 281
1991197N09248 1991 40 EP CP ENRIQUE 1991-07-24 15:00:00 NR 25.6097 207.986 main 674 642 P_____________ EP061991 25.7270 -152.136 25 16 283
1991197N09248 1991 40 EP CP ENRIQUE 1991-07-24 18:00:00 NR 25.8000 207.100 20 1014 cphc main 642 624 O_____________ jtwc_ep EP061991 25.9000 -153.000 25 16 284
1991197N09248 1991 40 EP CP ENRIQUE 1991-07-24 21:00:00 NR 26.0060 206.210 main 622 613 P_____________ EP061991 26.1699 -153.907 25 16 286
1991197N09248 1991 40 EP CP ENRIQUE 1991-07-25 00:00:00 NR 26.2500 205.350 20 1014 cphc main 622 602 O_____________ jtwc_ep EP061991 26.5000 -154.800 25 16 289
1991197N09248 1991 40 EP CP ENRIQUE 1991-07-25 03:00:00 NR 26.5347 204.534 main 599 599 P_____________ EP061991 26.8347 -155.645 27 15 293
1991197N09248 1991 40 EP CP ENRIQUE 1991-07-25 06:00:00 NR 26.8500 203.800 20 1014 cphc main 616 611 O_____________ jtwc_ep EP061991 27.2000 -156.400 30 14 296
1991197N09248 1991 40 EP CP ENRIQUE 1991-07-25 09:00:00 NR 27.1409 203.151 main 613 613 P_____________ EP061991 27.5846 -157.060 30 13 301
1991197N09248 1991 40 EP CP ENRIQUE 1991-07-25 12:00:00 NR 27.5000 202.600 20 1014 cphc main 633 630 O_____________ jtwc_ep EP061991 28.0000 -157.600 30 13 313
1991197N09248 1991 40 EP CP ENRIQUE 1991-07-25 15:00:00 NR 28.0023 202.105 main 674 674 P_____________ EP061991 28.4572 -158.053 30 13 323
1991197N09248 1991 40 EP CP ENRIQUE 1991-07-25 18:00:00 NR 28.5500 201.700 20 1014 cphc main 733 722 O_____________ jtwc_ep EP061991 28.9000 -158.400 30 12 328
1991197N09248 1991 40 EP CP ENRIQUE 1991-07-25 21:00:00 NR 29.0548 201.359 main 785 784 P_____________ EP061991 29.2799 -158.688 30 11 331
1991197N09248 1991 40 EP CP ENRIQUE 1991-07-26 00:00:00 NR 29.5000 201.100 20 1014 cphc main 827 827 O_____________ jtwc_ep EP061991 29.6000 -158.900 30 9 334
1991197N09248 1991 40 EP CP ENRIQUE 1991-07-26 03:00:00 NR 29.8511 200.906 main 871 871 P_____________ EP061991 29.8574 -159.058 30 7 335
1991197N09248 1991 40 EP CP ENRIQUE 1991-07-26 06:00:00 NR 30.1500 200.750 20 1014 cphc main 904 904 O_____________ jtwc_ep EP061991 30.1000 -159.200 30 7 334
1991197N09248 1991 40 EP CP ENRIQUE 1991-07-26 09:00:00 NR 30.4463 200.564 main 927 927 P_____________ EP061991 30.3851 -159.407 32 7 333
1991197N09248 1991 40 EP CP ENRIQUE 1991-07-26 12:00:00 NR 30.7500 200.400 20 1014 cphc main 971 971 O_____________ jtwc_ep EP061991 30.7000 -159.600 35 7 340
1991197N09248 1991 40 EP CP ENRIQUE 1991-07-26 15:00:00 NR 31.1037 200.289 main 1005 1005 P_____________ EP061991 31.0499 -159.715 37 7 346
1991197N09248 1991 40 EP CP ENRIQUE 1991-07-26 18:00:00 NR 31.4500 200.200 25 1012 cphc main 1049 1049 O_____________ jtwc_ep EP061991 31.4000 -159.800 40 7 343
1991197N09248 1991 40 EP CP ENRIQUE 1991-07-26 21:00:00 NR 31.7363 200.066 main 1072 1072 P_____________ EP061991 31.7000 -159.937 42 6 343
1991197N09248 1991 40 EP CP ENRIQUE 1991-07-27 00:00:00 NR 32.0000 200.000 25 1012 cphc main 1105 1105 O_____________ jtwc_ep EP061991 32.0000 -160.000 45 6 358
1991197N09248 1991 40 EP CP ENRIQUE 1991-07-27 03:00:00 NR 32.3386 200.053 main 1139 1139 P_____________ EP061991 32.4249 -159.918 42 6 21
1991197N09248 1991 40 EP CP ENRIQUE 1991-07-27 06:00:00 NR 32.5500 200.250 25 1012 cphc main 1172 1161 O_____________ jtwc_ep EP061991 32.7000 -159.700 40 6 77
1991197N09248 1991 40 EP CP ENRIQUE 1991-07-27 09:00:00 NR 32.4605 200.697 main 1161 1139 P_____________ EP061991 32.5753 -159.266 37 7 115
1991197N09248 1991 40 EP CP ENRIQUE 1991-07-27 12:00:00 NR 32.2500 201.000 25 1012 cphc main 1139 1116 O_____________ jtwc_ep EP061991 32.3000 -159.000 35 4 172
1991197N09248 1991 40 EP CP ENRIQUE 1991-07-27 15:00:00 NR 32.1101 200.762 main 1116 1105 P_____________ EP061991 32.1278 -159.296 35 6 247
1991197N09248 1991 40 EP CP ENRIQUE 1991-07-27 18:00:00 NR 32.0000 200.300 25 1011 cphc main 1105 1094 O_____________ jtwc_ep EP061991 32.0000 -159.800 35 7 257
1991197N09248 1991 40 EP CP ENRIQUE 1991-07-27 21:00:00 NR 31.9461 199.933 main 1095 1095 P_____________ EP061991 31.9423 -160.150 32 6 261
1991197N09248 1991 40 EP CP ENRIQUE 1991-07-28 00:00:00 NR 31.9000 199.550 30 1009 cphc main 1096 1087 O_____________ jtwc_ep EP061991 31.9000 -160.500 30 7 258
1991197N09248 1991 40 EP CP ENRIQUE 1991-07-28 03:00:00 NR 31.8110 199.165 main 1088 1081 P_____________ EP061991 31.8151 -160.908 30 7 254
1991197N09248 1991 40 EP CP ENRIQUE 1991-07-28 06:00:00 NR 31.7000 198.750 30 1009 cphc main 1082 1075 O_____________ jtwc_ep EP061991 31.7000 -161.300 30 8 253
1991197N09248 1991 40 EP CP ENRIQUE 1991-07-28 09:00:00 NR 31.5863 198.283 main 1079 1072 P_____________ EP061991 31.5572 -161.600 30 8 253
1991197N09248 1991 40 EP CP ENRIQUE 1991-07-28 12:00:00 NR 31.4500 197.800 30 1008 cphc main 1078 1064 O_____________ jtwc_ep EP061991 31.4000 -161.900 30 9 250
1991197N09248 1991 40 EP CP ENRIQUE 1991-07-28 15:00:00 NR 31.2862 197.331 main 1069 1057 P_____________ EP061991 31.2576 -162.292 32 8 246
1991197N09248 1991 40 EP CP ENRIQUE 1991-07-28 18:00:00 NR 31.1000 196.900 35 1007 cphc main 1060 1049 O_____________ jtwc_ep EP061991 31.1000 -162.700 35 8 241
1991197N09248 1991 40 EP CP ENRIQUE 1991-07-28 21:00:00 NR 30.9073 196.535 main 1052 1039 P_____________ EP061991 30.9148 -163.057 35 7 236
1991197N09248 1991 40 EP CP ENRIQUE 1991-07-29 00:00:00 NR 30.7000 196.200 40 1007 cphc main 1043 1031 O_____________ jtwc_ep EP061991 30.7000 -163.400 35 7 234
1991197N09248 1991 40 EP CP ENRIQUE 1991-07-29 03:00:00 NR 30.4786 195.858 main 1035 1028 P_____________ EP061991 30.4572 -163.727 35 8 233
1991197N09248 1991 40 EP CP ENRIQUE 1991-07-29 06:00:00 NR 30.2500 195.500 40 1007 cphc main 1033 1023 O_____________ jtwc_ep EP061991 30.2000 -164.100 35 8 234
1991197N09248 1991 40 EP CP ENRIQUE 1991-07-29 09:00:00 NR 30.0396 195.146 main 1023 1019 P_____________ EP061991 29.9572 -164.555 37 8 237
1991197N09248 1991 40 EP CP ENRIQUE 1991-07-29 12:00:00 NR 29.8000 194.700 45 1006 cphc main 1025 1021 O_____________ jtwc_ep EP061991 29.7000 -165.100 40 11 238
1991197N09248 1991 40 EP CP ENRIQUE 1991-07-29 15:00:00 NR 29.4824 194.098 main 1032 1030 P_____________ EP061991 29.3920 -165.698 42 13 240
1991197N09248 1991 40 EP CP ENRIQUE 1991-07-29 18:00:00 NR 29.1500 193.400 45 1006 cphc main 1051 1043 O_____________ jtwc_ep EP061991 29.1000 -166.400 45 14 242
1991197N09248 1991 40 EP CP ENRIQUE 1991-07-29 21:00:00 NR 28.8555 192.720 main 1075 1067 P_____________ EP061991 28.8698 -167.212 45 14 247
1991197N09248 1991 40 EP CP ENRIQUE 1991-07-30 00:00:00 NR 28.6000 191.950 40 1007 cphc main 1112 1112 O_____________ jtwc_ep EP061991 28.7000 -168.100 45 15 251
1991197N09248 1991 40 EP CP ENRIQUE 1991-07-30 03:00:00 NR 28.3621 191.048 main 1168 1168 P_____________ EP061991 28.5844 -168.984 42 17 257
1991197N09248 1991 40 EP CP ENRIQUE 1991-07-30 06:00:00 NR 28.2000 190.050 35 1011 cphc main 1229 1237 O_____________ jtwc_ep EP061991 28.5000 -169.900 40 18 263
1991197N09248 1991 40 EP CP ENRIQUE 1991-07-30 09:00:00 NR 28.1260 189.008 main 1316 1316 P_____________ EP061991 28.3845 -170.843 37 19 268
1991197N09248 1991 40 EP CP ENRIQUE 1991-07-30 12:00:00 NR 28.1500 187.950 30 1013 cphc main 1417 1417 O_____________ jtwc_ep EP061991 28.3000 -171.800 35 18 274
1991197N09248 1991 40 EP CP ENRIQUE 1991-07-30 15:00:00 NR 28.2407 186.928 main 1505 1505 P_____________ EP061991 28.2617 -172.743 32 18 278
1991197N09248 1991 40 EP CP ENRIQUE 1991-07-30 18:00:00 NR 28.4000 185.950 30 1013 cphc main 1594 1594 O_____________ jtwc_ep EP061991 28.3000 -173.700 30 17 282
1991197N09248 1991 40 EP CP ENRIQUE 1991-07-30 21:00:00 NR 28.5914 185.046 main 1693 1693 P_____________ EP061991 28.4193 -174.685 27 16 284
1991197N09248 1991 40 EP CP ENRIQUE 1991-07-31 00:00:00 NR 28.8000 184.150 30 1013 cphc main 1783 1783 O_____________ jtwc_ep EP061991 28.6000 -175.700 25 17 283
1991197N09248 1991 40 EP CP ENRIQUE 1991-07-31 03:00:00 NR 28.9779 183.205 main 1872 1872 P_____________ EP061991 28.7917 -176.735 22 17 281
1991197N09248 1991 40 EP CP ENRIQUE 1991-07-31 06:00:00 NR 29.1286 182.200 30 1013 cphc main 1967 1967 O_____________ jtwc_ep EP061991 29.0000 -177.800 20 18 279
1991197N09248 1991 40 EP CP ENRIQUE 1991-07-31 09:00:00 NR 29.2769 181.117 main 2076 2076 P_____________ EP061991 29.1918 -178.893 22 19 279
1991197N09248 1991 40 EP CP ENRIQUE 1991-07-31 12:00:00 NR 29.4400 180.000 main 2180 2180 O_____________ jtwc_ep EP061991 29.4000 -180.000 25 19 280
1991197N09248 1991 40 WP MM ENRIQUE 1991-07-31 15:00:00 NR 29.6262 178.914 main 2288 2288 P_____________ EP061991 29.6262 178.914 27 20 284
1991197N09248 1991 40 WP MM ENRIQUE 1991-07-31 18:00:00 NR 29.9000 177.800 main 2400 2400 O_____________ jtwc_ep EP061991 29.9000 177.800 30 21 285
1991197N09248 1991 40 WP MM ENRIQUE 1991-07-31 21:00:00 NR 30.1751 176.583 main 2520 2520 P_____________ EP061991 30.1751 176.583 32 22 289
1991197N09248 1991 40 WP MM ENRIQUE 1991-08-01 00:00:00 NR 30.6000 175.400 main 2642 2608 O_____________ jtwc_ep EP061991 30.6000 175.400 35 22 299
1991197N09248 1991 40 WP MM ENRIQUE 1991-08-01 03:00:00 NR 31.2450 174.296 main 2603 2483 P_____________ EP061991 31.2450 174.296 35 23 311
1991197N09248 1991 40 WP MM ENRIQUE 1991-08-01 06:00:00 NR 32.1000 173.400 main 2474 2359 O_____________ jtwc_ep EP061991 32.1000 173.400 35 22 325
1991197N09248 1991 40 WP MM ENRIQUE 1991-08-01 09:00:00 NR 33.0663 172.808 main 2349 2235 P_____________ EP061991 33.0663 172.808 32 23 338
1991197N09248 1991 40 WP MM ENRIQUE 1991-08-01 12:00:00 NR 34.2000 172.400 main 2225 2088 O_____________ jtwc_ep EP061991 34.2000 172.400 30 25 343
1991197N09248 1991 40 WP MM ENRIQUE 1991-08-01 15:00:00 NR 35.4327 171.919 main 2088 1953 P_____________ EP061991 35.4327 171.919 27 27 346
1991197N09248 1991 40 WP MM ENRIQUE 1991-08-01 18:00:00 NR 36.8000 171.600 main 1944 1818 O_____________ jtwc_ep EP061991 36.8000 171.600 25 29 354
1991197N09248 1991 40 WP MM ENRIQUE 1991-08-01 21:00:00 NR 38.2723 171.561 main 1809 1694 P_____________ EP061991 38.2723 171.561 25 30 1
1991197N09248 1991 40 WP MM ENRIQUE 1991-08-02 00:00:00 NR 39.8000 171.700 main 1684 O_____________ jtwc_ep EP061991 39.8000 171.700 25 31 4

About IBTrACS Database

This database is a web-friendly format of International Best Track Archive for Climate Stewardship (IBTrACS), a global best track data archive curated by NOAA dating back to 1842.

Updated: 2021-10-08